METAR Data
IDs: Format: Raw Decoded Include TAF

Data at: 2045 UTC 23 Sep 2018

METAR for:PAVC (King Cove Arpt, AK, US)
Text:PAVC 232020Z AUTO 14003KT 10SM -RA SCT025 OVC032 09/07 A2973 RMK AO2 P0001
Temperature: 9.0°C ( 48°F)
Dewpoint: 7.0°C ( 45°F) [RH = 87%]
Pressure (altimeter):29.73 inches Hg (1006.9 mb)
Winds:from the SE (140 degrees) at 3 MPH (3 knots; 1.5 m/s)
Visibility:10 or more sm (16+ km)
Ceiling:3200 feet AGL
Clouds: scattered clouds at 2500 feet AGL, overcast cloud deck at 3200 feet AGL
Weather:-RA (light rain)
QC Flag:automated observation with no human augmentation
Text:PAVC 231956Z AUTO 07005KT 9SM RA BKN025 OVC029 08/07 A2975 RMK AO2 RAB28 SLP078 P0001 T00830067
Temperature: 8.3°C ( 47°F)
Dewpoint: 6.7°C ( 44°F) [RH = 90%]
Pressure (altimeter):29.75 inches Hg (1007.5 mb) [Sea level pressure: 1007.8 mb]
Winds:from the ENE (70 degrees) at 6 MPH (5 knots; 2.6 m/s)
Visibility: 9 sm ( 14 km)
Ceiling:2500 feet AGL
Clouds: broken clouds at 2500 feet AGL, overcast cloud deck at 2900 feet AGL
Weather:RA (moderate rain)
QC Flag:automated observation with no human augmentation
Text:PAVC 231916Z AUTO 06005KT 10SM BKN025 OVC036 09/07 A2976 RMK AO2
Temperature: 9.0°C ( 48°F)
Dewpoint: 7.0°C ( 45°F) [RH = 87%]
Pressure (altimeter):29.76 inches Hg (1007.9 mb)
Winds:from the ENE (60 degrees) at 6 MPH (5 knots; 2.6 m/s)
Visibility:10 or more sm (16+ km)
Ceiling:2500 feet AGL
Clouds: broken clouds at 2500 feet AGL, overcast cloud deck at 3600 feet AGL
QC Flag:automated observation with no human augmentation
Text:PAVC 231856Z AUTO 04006KT 10SM OVC038 09/06 A2975 RMK AO2 SLP082 T00940061
Temperature: 9.4°C ( 49°F)
Dewpoint: 6.1°C ( 43°F) [RH = 80%]
Pressure (altimeter):29.75 inches Hg (1007.5 mb) [Sea level pressure: 1008.2 mb]
Winds:from the NE (40 degrees) at 7 MPH (6 knots; 3.1 m/s)
Visibility:10 or more sm (16+ km)
Ceiling:3800 feet AGL
Clouds: overcast cloud deck at 3800 feet AGL
QC Flag:automated observation with no human augmentation
Text:PAVC 231756Z AUTO 08004KT 10SM OVC040 08/04 A2977 RMK AO2 RAB1658E18 SLP088 P0000 60000 T00830044 10083 20050 56020
Temperature: 8.3°C ( 47°F)
Dewpoint: 4.4°C ( 40°F) [RH = 76%]
Pressure (altimeter):29.77 inches Hg (1008.2 mb) [Sea level pressure: 1008.8 mb]
Winds:from the E (80 degrees) at 5 MPH (4 knots; 2.1 m/s)
Visibility:10 or more sm (16+ km)
Ceiling:4000 feet AGL
Clouds: overcast cloud deck at 4000 feet AGL
QC Flag:automated observation with no human augmentation
Text:PAVC 231656Z AUTO 08004KT 10SM OVC042 08/04 A2979 RMK AO2 RAB09E19 SLP092 P0000 T00830044
Temperature: 8.3°C ( 47°F)
Dewpoint: 4.4°C ( 40°F) [RH = 76%]
Pressure (altimeter):29.79 inches Hg (1008.9 mb) [Sea level pressure: 1009.2 mb]
Winds:from the E (80 degrees) at 5 MPH (4 knots; 2.1 m/s)
Visibility:10 or more sm (16+ km)
Ceiling:4200 feet AGL
Clouds: overcast cloud deck at 4200 feet AGL
QC Flag:automated observation with no human augmentation
Text:PAVC 231556Z AUTO 00000KT 10SM BKN042 OVC080 07/05 A2981 RMK AO2 SLP100 T00670050
Temperature: 6.7°C ( 44°F)
Dewpoint: 5.0°C ( 41°F) [RH = 89%]
Pressure (altimeter):29.81 inches Hg (1009.6 mb) [Sea level pressure: 1010.0 mb]
Winds:calm
Visibility:10 or more sm (16+ km)
Ceiling:4200 feet AGL
Clouds: broken clouds at 4200 feet AGL, overcast cloud deck at 8000 feet AGL
QC Flag:automated observation with no human augmentation
Text:PAVC 231456Z AUTO 00000KT 10SM SCT045 BKN080 07/05 A2983 RMK AO2 SLP109 T00670050 58012
Temperature: 6.7°C ( 44°F)
Dewpoint: 5.0°C ( 41°F) [RH = 89%]
Pressure (altimeter):29.83 inches Hg (1010.2 mb) [Sea level pressure: 1010.9 mb]
Winds:calm
Visibility:10 or more sm (16+ km)
Ceiling:8000 feet AGL
Clouds: scattered clouds at 4500 feet AGL, broken clouds at 8000 feet AGL
QC Flag:automated observation with no human augmentation

TAF for:PAVC (King Cove Arpt, AK, US)
Text:No data found